createdAt,value
2023-03-06T00:04:24.346Z,5.20
2023-03-06T00:09:28.971Z,5.03
2023-03-06T00:14:32.390Z,5.10
2023-03-06T00:19:35.789Z,4.97
2023-03-06T00:24:40.401Z,4.70
2023-03-06T00:29:43.556Z,4.13
2023-03-06T00:34:50.089Z,4.45
2023-03-06T00:39:55.087Z,5.03
2023-03-06T00:44:58.471Z,4.63
2023-03-06T00:50:01.867Z,4.43
2023-03-06T00:55:09.809Z,4.10
2023-03-06T01:00:14.731Z,4.55
2023-03-06T01:05:18.441Z,3.75
2023-03-06T01:10:23.417Z,4.00
2023-03-06T01:15:26.982Z,3.25
2023-03-06T01:20:30.995Z,3.92
2023-03-06T01:25:35.580Z,3.58
2023-03-06T01:30:38.774Z,3.67
2023-03-06T01:35:42.172Z,3.40
2023-03-06T01:40:47.258Z,4.07
2023-03-06T01:46:23.941Z,4.07
2023-03-06T01:51:31.719Z,3.97
2023-03-06T01:56:37.026Z,3.25
2023-03-06T02:01:41.862Z,4.22
2023-03-06T02:06:45.693Z,2.92
2023-03-06T02:11:50.540Z,4.40
2023-03-06T02:16:54.114Z,3.80
2023-03-06T02:21:57.710Z,3.38
2023-03-06T02:27:05.402Z,4.30
2023-03-06T02:32:08.899Z,3.67
2023-03-06T02:37:12.987Z,3.63
2023-03-06T02:42:21.081Z,5.72
2023-03-06T02:47:24.700Z,4.13
2023-03-06T02:52:27.985Z,4.50
2023-03-06T02:57:32.657Z,4.97
2023-03-06T03:02:36.011Z,4.82
2023-03-06T03:07:39.522Z,5.05
2023-03-06T03:12:44.603Z,4.82
2023-03-06T03:17:47.867Z,5.40
2023-03-06T03:22:53.319Z,4.68
2023-03-06T03:27:57.996Z,5.20
2023-03-06T03:33:01.274Z,6.28
2023-03-06T03:38:04.889Z,5.55
2023-03-06T03:43:09.693Z,4.72
2023-03-06T03:48:13.148Z,4.40
2023-03-06T03:53:16.492Z,3.40
2023-03-06T03:58:21.148Z,3.17
2023-03-06T04:03:24.514Z,3.33
2023-03-06T04:08:28.590Z,3.45
2023-03-06T04:13:33.297Z,3.50
2023-03-06T04:18:36.719Z,2.90
2023-03-06T04:23:40.069Z,2.60
2023-03-06T04:28:44.619Z,2.58
2023-03-06T04:33:47.828Z,2.25
2023-03-06T04:38:51.081Z,1.92
2023-03-06T04:43:56.170Z,1.67
2023-03-06T04:48:59.518Z,2.55
2023-03-06T04:54:02.787Z,2.30
2023-03-06T04:59:07.622Z,2.38
2023-03-06T05:04:10.864Z,2.20
2023-03-06T05:09:14.366Z,1.88
2023-03-06T05:14:19.002Z,2.83
2023-03-06T05:19:22.311Z,2.40
2023-03-06T05:24:25.720Z,2.50
2023-03-06T05:29:30.336Z,2.05
2023-03-06T05:34:33.627Z,2.47
2023-03-06T05:39:37.007Z,2.30
2023-03-06T05:44:42.279Z,2.10
2023-03-06T05:49:45.601Z,2.40
2023-03-06T05:54:51.908Z,2.38
2023-03-06T05:59:56.544Z,2.80
2023-03-06T06:04:59.912Z,2.25
2023-03-06T06:10:03.987Z,2.40
2023-03-06T06:15:10.053Z,2.13
2023-03-06T06:20:14.395Z,2.25
2023-03-06T06:25:18.197Z,2.40
2023-03-06T06:30:23.548Z,2.95
2023-03-06T06:35:26.828Z,2.40
2023-03-06T06:40:30.573Z,2.35
2023-03-06T06:45:35.486Z,1.38
2023-03-06T06:50:40.107Z,2.33
2023-03-06T06:55:43.447Z,2.55
2023-03-06T07:00:48.266Z,2.63
2023-03-06T07:05:57.760Z,3.13
2023-03-06T07:11:05.768Z,1.92
2023-03-06T07:16:11.057Z,2.33
2023-03-06T07:21:14.414Z,2.50
2023-03-06T07:26:17.668Z,2.20
2023-03-06T07:31:24.738Z,2.08
2023-03-06T07:36:28.162Z,1.70
2023-03-06T07:41:31.439Z,1.70
2023-03-06T07:46:36.059Z,2.03
2023-03-06T07:51:39.394Z,1.70
2023-03-06T07:56:42.658Z,1.85
2023-03-06T08:01:47.302Z,1.65
2023-03-06T08:06:50.809Z,1.40
2023-03-06T08:11:54.111Z,1.38
2023-03-06T08:16:59.038Z,1.20
2023-03-06T08:22:02.193Z,1.30
2023-03-06T08:27:05.481Z,1.45
2023-03-06T08:32:13.203Z,1.33
2023-03-06T08:37:16.463Z,1.42
2023-03-06T08:42:20.215Z,1.60
2023-03-06T08:47:24.966Z,2.00
2023-03-06T08:52:28.498Z,1.50
2023-03-06T08:57:32.023Z,1.30
2023-03-06T09:02:36.922Z,1.83
2023-03-06T09:07:40.213Z,1.30
2023-03-06T09:12:50.593Z,1.52
2023-03-06T09:17:56.973Z,1.15
2023-03-06T09:23:00.616Z,1.45
2023-03-06T09:28:11.322Z,1.80
2023-03-06T09:33:16.789Z,2.13
2023-03-06T09:38:20.778Z,1.20
2023-03-06T09:43:35.494Z,1.40
2023-03-06T09:48:50.464Z,0.95
2023-03-06T09:54:06.920Z,1.13
2023-03-06T09:59:17.579Z,2.40
2023-03-06T10:04:33.914Z,1.20
2023-03-06T10:09:43.504Z,1.35
2023-03-06T10:14:51.555Z,1.52
2023-03-06T10:19:56.621Z,1.75
2023-03-06T10:25:06.157Z,1.73
2023-03-06T10:30:33.840Z,1.55
2023-03-06T10:35:48.515Z,1.60
2023-03-06T10:41:08.177Z,1.40
2023-03-06T10:46:13.458Z,1.40
2023-03-06T10:51:21.221Z,1.00
2023-03-06T10:56:32.462Z,1.42
2023-03-06T11:01:36.202Z,1.20
2023-03-06T11:06:41.029Z,1.80
2023-03-06T11:11:44.553Z,1.33
2023-03-06T11:16:53.285Z,1.30
2023-03-06T11:22:03.868Z,1.50
2023-03-06T11:27:22.336Z,1.27
2023-03-06T11:32:28.979Z,1.30
2023-03-06T11:37:46.402Z,1.50
2023-03-06T11:42:54.448Z,1.70
2023-03-06T11:48:05.121Z,1.60
2023-03-06T11:53:13.927Z,1.65
2023-03-06T11:58:51.624Z,2.05
2023-03-06T12:04:27.250Z,1.85
2023-03-06T12:09:45.317Z,1.70
2023-03-06T12:15:17.822Z,1.65
2023-03-06T12:20:41.369Z,1.80
2023-03-06T12:25:51.845Z,1.70
2023-03-06T12:31:18.921Z,1.85
2023-03-06T12:36:40.004Z,1.88
2023-03-06T12:42:22.692Z,1.98
2023-03-06T12:47:29.305Z,2.00
2023-03-06T12:52:35.076Z,1.55
2023-03-06T12:57:39.649Z,1.60
2023-03-06T13:02:56.162Z,1.67
2023-03-06T13:08:25.386Z,1.92
2023-03-06T13:13:42.719Z,2.40
2023-03-06T13:18:53.264Z,1.90
2023-03-06T13:24:05.850Z,1.80
2023-03-06T13:29:41.878Z,2.10
2023-03-06T13:34:48.679Z,1.67
2023-03-06T13:40:26.935Z,1.90
2023-03-06T13:45:35.450Z,2.20
2023-03-06T13:50:42.865Z,2.15
2023-03-06T13:55:59.892Z,2.05
2023-03-06T14:01:20.326Z,2.08
2023-03-06T14:06:51.500Z,2.22
2023-03-06T14:11:59.334Z,2.38
2023-03-06T14:17:05.368Z,2.35
2023-03-06T14:22:18.386Z,1.70
2023-03-06T14:27:22.461Z,1.60
2023-03-06T14:32:25.978Z,1.70
2023-03-06T14:37:32.230Z,1.83
2023-03-06T14:42:35.530Z,2.10
2023-03-06T14:47:39.272Z,1.60
2023-03-06T14:52:44.534Z,1.70
2023-03-06T14:57:50.262Z,1.95
2023-03-06T15:02:56.419Z,1.92
2023-03-06T15:08:04.672Z,1.95
2023-03-06T15:13:12.625Z,2.90
2023-03-06T15:18:34.035Z,2.00
2023-03-06T15:23:40.580Z,1.80
2023-03-06T15:28:44.069Z,2.03
2023-03-06T15:34:09.300Z,2.22
2023-03-06T15:39:32.046Z,2.60
2023-03-06T15:44:35.838Z,2.10
2023-03-06T15:49:39.340Z,2.10
2023-03-06T15:54:44.346Z,2.85
2023-03-06T15:59:48.157Z,1.67
2023-03-06T16:04:52.273Z,2.65
2023-03-06T16:09:57.267Z,2.63
2023-03-06T16:15:03.004Z,3.40
2023-03-06T16:20:09.166Z,3.15
2023-03-06T16:25:15.267Z,4.22
2023-03-06T16:30:21.497Z,5.15
2023-03-06T16:35:25.859Z,4.00
2023-03-06T16:40:37.634Z,3.17
2023-03-06T16:45:42.757Z,2.80
2023-03-06T16:50:46.325Z,2.72
2023-03-06T16:55:51.113Z,3.03
2023-03-06T17:00:54.700Z,3.33
2023-03-06T17:05:58.015Z,3.72
2023-03-06T17:11:06.410Z,3.47
2023-03-06T17:16:12.775Z,3.30
2023-03-06T17:21:16.711Z,4.32
2023-03-06T17:26:21.554Z,3.92
2023-03-06T17:31:27.153Z,5.03
2023-03-06T17:36:31.251Z,6.65
2023-03-06T17:41:35.985Z,5.05
2023-03-06T17:46:39.499Z,4.43
2023-03-06T17:51:42.697Z,4.18
2023-03-06T17:56:47.620Z,3.53
2023-03-06T18:01:51.050Z,4.20
2023-03-06T18:06:54.517Z,3.85
2023-03-06T18:11:59.156Z,5.03
2023-03-06T18:17:02.465Z,3.40
2023-03-06T18:22:05.651Z,4.65
2023-03-06T18:27:10.516Z,4.57
2023-03-06T18:32:13.746Z,4.28
2023-03-06T18:37:17.282Z,3.17
2023-03-06T18:42:22.066Z,4.47
2023-03-06T18:47:25.388Z,3.03
2023-03-06T18:52:28.577Z,4.03
2023-03-06T18:57:33.638Z,4.40
2023-03-06T19:02:36.961Z,4.20
2023-03-06T19:07:40.830Z,4.45
2023-03-06T19:12:45.622Z,4.03
2023-03-06T19:17:51.516Z,4.32
2023-03-06T19:22:55.242Z,3.60
2023-03-06T19:27:59.938Z,3.72
2023-03-06T19:33:03.287Z,3.85
2023-03-06T19:38:06.465Z,2.95
2023-03-06T19:43:11.170Z,3.72
2023-03-06T19:48:14.860Z,3.60
2023-03-06T19:53:18.096Z,2.90
2023-03-06T19:58:22.754Z,3.38
2023-03-06T20:03:25.995Z,4.07
2023-03-06T20:08:29.283Z,3.03
2023-03-06T20:13:34.114Z,2.90
2023-03-06T20:18:37.523Z,2.90
2023-03-06T20:23:40.997Z,3.20
2023-03-06T20:28:45.653Z,3.60
2023-03-06T20:33:51.240Z,2.83
2023-03-06T20:38:54.597Z,3.22
2023-03-06T20:44:01.187Z,3.15
2023-03-06T20:49:05.448Z,3.58
2023-03-06T20:54:11.172Z,3.70
2023-03-06T20:59:16.353Z,3.28
2023-03-06T21:04:19.486Z,3.63
2023-03-06T21:09:22.936Z,3.65
2023-03-06T21:14:27.885Z,3.22
2023-03-06T21:19:31.265Z,3.08
2023-03-06T21:24:34.530Z,3.50
2023-03-06T21:29:39.213Z,3.30
2023-03-06T21:34:42.600Z,3.53
2023-03-06T21:39:45.902Z,2.92
2023-03-06T21:44:50.889Z,3.25
2023-03-06T21:49:54.186Z,2.78
2023-03-06T21:54:57.503Z,2.95
2023-03-06T22:00:02.365Z,2.78
2023-03-06T22:05:07.194Z,2.45
2023-03-06T22:10:14.391Z,2.22
2023-03-06T22:15:21.914Z,3.30
2023-03-06T22:20:25.256Z,2.28
2023-03-06T22:25:28.405Z,2.47
2023-03-06T22:30:33.100Z,2.30
2023-03-06T22:35:36.401Z,2.40
2023-03-06T22:40:39.803Z,2.05
2023-03-06T22:45:44.726Z,2.80
2023-03-06T22:50:48.464Z,2.13
2023-03-06T22:55:51.941Z,2.47
2023-03-06T23:00:57.901Z,1.70
2023-03-06T23:06:01.199Z,2.40
2023-03-06T23:11:08.230Z,2.10
2023-03-06T23:16:13.326Z,2.10
2023-03-06T23:21:18.426Z,2.50
2023-03-06T23:26:23.925Z,1.90
2023-03-06T23:31:30.244Z,1.67
2023-03-06T23:36:33.577Z,1.80
2023-03-06T23:41:36.872Z,2.13
2023-03-06T23:46:41.588Z,1.67
2023-03-06T23:51:45.063Z,1.80
2023-03-06T23:56:48.660Z,2.35
